Time;durP1;ratioP1;P1;durP2;ratioP2;P2;SDS_P1;SDS_P2;PMS_P1;PMS_P2;Temp;Humidity;BMP_temperature;BMP_pressure;BME280_temperature;BME280_humidity;BME280_pressure;Samples;Min_cycle;Max_cycle;Signal;HPM_P1;HPM_P2
2022/04/07 00:00:33;;;;;;;;;;;21.10;41.30;;;;;;5162670;27;19922;-55
2022/04/07 00:02:58;;;;;;;;;;;21.20;41.10;;;;;;5162307;27;19976;-48
2022/04/07 00:05:24;;;;;;;;;;;21.00;41.50;;;;;;5167770;27;19926;-57
2022/04/07 00:07:50;;;;;;;;;;;21.10;41.10;;;;;;5143382;27;19937;-57
2022/04/07 00:10:16;;;;;;;;;;;21.10;41.30;;;;;;5161508;27;20443;-53
2022/04/07 00:12:42;;;;;;;;;;;21.20;41.00;;;;;;5163833;27;19923;-54
2022/04/07 00:15:11;;;;;;;;;;;21.20;41.00;;;;;;5161469;27;19923;-54
2022/04/07 00:17:37;;;;;;;;;;;21.10;41.20;;;;;;5163982;27;20006;-54
2022/04/07 00:20:03;;;;;;;;;;;21.20;41.00;;;;;;5166175;27;19934;-57
2022/04/07 00:22:29;;;;;;;;;;;21.00;41.60;;;;;;5162310;27;19929;-53
2022/04/07 00:24:55;;;;;;;;;;;21.10;41.20;;;;;;5167649;27;19923;-53
2022/04/07 00:27:21;;;;;;;;;;;21.20;41.30;;;;;;5161989;27;19927;-54
2022/04/07 00:29:46;;;;;;;;;;;21.20;41.00;;;;;;5160047;27;19923;-55
2022/04/07 00:32:12;;;;;;;;;;;21.10;41.30;;;;;;5164465;27;19930;-56
2022/04/07 00:34:39;;;;;;;;;;;21.20;40.80;;;;;;5161950;27;19926;-58
2022/04/07 00:37:05;;;;;;;;;;;21.00;41.60;;;;;;5161881;27;19923;-57
2022/04/07 00:39:31;;;;;;;;;;;21.20;41.00;;;;;;5148970;27;19975;-57
2022/04/07 00:41:56;;;;;;;;;;;21.00;41.60;;;;;;5161913;27;21407;-56
2022/04/07 00:44:22;;;;;;;;;;;21.30;41.00;;;;;;5167328;27;19977;-48
2022/04/07 00:46:48;;;;;;;;;;;20.90;41.70;;;;;;5161005;27;19926;-55
2022/04/07 00:49:14;;;;;;;;;;;21.30;41.00;;;;;;5139885;27;19923;-49
2022/04/07 00:51:40;;;;;;;;;;;21.00;41.50;;;;;;5165957;27;19930;-56
2022/04/07 00:54:06;;;;;;;;;;;21.10;41.30;;;;;;5142388;27;19927;-57
2022/04/07 00:56:33;;;;;;;;;;;21.00;41.60;;;;;;5161687;27;20085;-56
2022/04/07 00:58:58;;;;;;;;;;;21.20;41.10;;;;;;5146855;27;19922;-58
2022/04/07 01:01:28;;;;;;;;;;;20.90;42.00;;;;;;5161556;27;19927;-55
2022/04/07 01:03:54;;;;;;;;;;;21.20;41.30;;;;;;5166975;27;20421;-47
2022/04/07 01:06:20;;;;;;;;;;;21.00;41.70;;;;;;5159888;27;20330;-56
2022/04/07 01:08:46;;;;;;;;;;;21.20;41.20;;;;;;5158303;27;19926;-50
2022/04/07 01:11:12;;;;;;;;;;;21.00;41.40;;;;;;5166728;27;20426;-57
2022/04/07 01:13:41;;;;;;;;;;;21.30;40.90;;;;;;5161428;27;19927;-58
2022/04/07 01:16:07;;;;;;;;;;;21.00;41.20;;;;;;5161369;27;19932;-52
2022/04/07 01:18:33;;;;;;;;;;;21.20;41.20;;;;;;5166889;27;19926;-57
2022/04/07 01:20:59;;;;;;;;;;;21.00;41.50;;;;;;5161213;27;19969;-52
2022/04/07 01:23:25;;;;;;;;;;;21.20;41.30;;;;;;5163025;27;20304;-56
2022/04/07 01:25:51;;;;;;;;;;;21.10;41.40;;;;;;5164144;27;20980;-56
2022/04/07 01:28:16;;;;;;;;;;;21.20;41.40;;;;;;5163412;27;19933;-49
2022/04/07 01:30:42;;;;;;;;;;;20.90;41.90;;;;;;5170435;27;20296;-47
2022/04/07 01:33:09;;;;;;;;;;;21.20;41.30;;;;;;5164871;27;19923;-48
2022/04/07 01:35:35;;;;;;;;;;;21.00;41.60;;;;;;5146506;27;20327;-56
2022/04/07 01:38:01;;;;;;;;;;;21.20;41.30;;;;;;5170368;27;19923;-54
2022/04/07 01:40:28;;;;;;;;;;;20.90;41.80;;;;;;5164598;27;19979;-57
2022/04/07 01:42:54;;;;;;;;;;;21.20;41.40;;;;;;5163880;27;19927;-58
2022/04/07 01:45:20;;;;;;;;;;;20.90;42.00;;;;;;5166683;27;19930;-56
2022/04/07 01:47:46;;;;;;;;;;;21.20;41.50;;;;;;5145543;27;20413;-57
2022/04/07 01:50:11;;;;;;;;;;;21.00;41.90;;;;;;5151222;27;19934;-53
2022/04/07 01:52:38;;;;;;;;;;;21.30;41.20;;;;;;5164559;27;20305;-57
2022/04/07 01:55:04;;;;;;;;;;;20.90;41.80;;;;;;5164662;27;20021;-52
2022/04/07 01:57:30;;;;;;;;;;;21.20;41.30;;;;;;5169775;27;19969;-59
2022/04/07 01:59:56;;;;;;;;;;;21.10;41.50;;;;;;5144608;27;20018;-53
2022/04/07 02:02:22;;;;;;;;;;;21.30;40.80;;;;;;5162304;27;20180;-51
2022/04/07 02:05:09;;;;;;;;;;;21.00;41.30;;;;;;5167259;27;19930;-55
2022/04/07 02:07:36;;;;;;;;;;;21.00;41.20;;;;;;5164477;27;20014;-55
2022/04/07 02:10:03;;;;;;;;;;;21.00;41.20;;;;;;5164394;27;19933;-57
2022/04/07 02:12:29;;;;;;;;;;;21.10;41.10;;;;;;5169766;27;19935;-55
2022/04/07 02:14:55;;;;;;;;;;;21.10;41.10;;;;;;5145767;27;20010;-58
2022/04/07 02:17:22;;;;;;;;;;;21.10;41.10;;;;;;5150885;27;19923;-57
2022/04/07 02:19:49;;;;;;;;;;;21.30;40.60;;;;;;5162831;27;19952;-49
2022/04/07 02:22:15;;;;;;;;;;;21.00;41.30;;;;;;5160439;27;19923;-55
2022/04/07 02:24:41;;;;;;;;;;;21.20;41.00;;;;;;5169026;27;19923;-50
2022/04/07 02:27:08;;;;;;;;;;;21.00;41.40;;;;;;5164230;27;20050;-57
2022/04/07 02:29:34;;;;;;;;;;;21.20;40.80;;;;;;5163906;27;20275;-57
2022/04/07 02:32:00;;;;;;;;;;;20.90;41.50;;;;;;5169329;27;19977;-56
2022/04/07 02:34:25;;;;;;;;;;;21.30;40.80;;;;;;5164096;27;19927;-57
2022/04/07 02:36:51;;;;;;;;;;;20.90;41.50;;;;;;5168261;27;19934;-56
2022/04/07 02:39:17;;;;;;;;;;;21.20;40.80;;;;;;5162495;27;19966;-59
2022/04/07 02:41:43;;;;;;;;;;;20.90;41.60;;;;;;5161212;27;19930;-51
2022/04/07 02:44:09;;;;;;;;;;;21.10;40.90;;;;;;5169264;27;20401;-48
2022/04/07 02:46:35;;;;;;;;;;;21.10;40.90;;;;;;5163951;27;19955;-49
2022/04/07 02:49:01;;;;;;;;;;;20.90;41.20;;;;;;5163447;27;20521;-50
2022/04/07 02:51:27;;;;;;;;;;;21.20;40.70;;;;;;5169160;27;19930;-57
2022/04/07 02:53:57;;;;;;;;;;;21.10;40.80;;;;;;5163610;27;20013;-58
2022/04/07 02:56:26;;;;;;;;;;;21.10;41.00;;;;;;5163381;27;19929;-54
2022/04/07 02:58:52;;;;;;;;;;;21.00;40.90;;;;;;5165275;27;19976;-55
2022/04/07 03:01:18;;;;;;;;;;;21.20;40.80;;;;;;5162560;27;20653;-52
2022/04/07 03:03:44;;;;;;;;;;;20.90;40.80;;;;;;5168831;27;19983;-57
2022/04/07 03:06:10;;;;;;;;;;;21.20;40.20;;;;;;5163400;27;19970;-55
2022/04/07 03:08:35;;;;;;;;;;;21.00;40.10;;;;;;5144552;27;19926;-59
2022/04/07 03:11:01;;;;;;;;;;;21.20;39.70;;;;;;5168441;27;19926;-53
2022/04/07 03:13:27;;;;;;;;;;;21.10;39.40;;;;;;5162968;27;20405;-52
2022/04/07 03:15:53;;;;;;;;;;;21.10;39.10;;;;;;5161660;27;19923;-56
2022/04/07 03:18:19;;;;;;;;;;;21.10;38.80;;;;;;5165564;27;19990;-48
2022/04/07 03:20:45;;;;;;;;;;;21.30;38.50;;;;;;5144269;27;19930;-57
2022/04/07 03:23:11;;;;;;;;;;;21.10;38.20;;;;;;5168378;27;19983;-53
2022/04/07 03:25:37;;;;;;;;;;;21.20;38.10;;;;;;5163184;27;19985;-49
2022/04/07 03:28:06;;;;;;;;;;;21.10;38.10;;;;;;5162989;27;19923;-54
2022/04/07 03:30:32;;;;;;;;;;;21.20;37.80;;;;;;5168544;27;19929;-57
2022/04/07 03:32:58;;;;;;;;;;;21.00;38.00;;;;;;5162622;27;19927;-56
2022/04/07 03:35:24;;;;;;;;;;;21.30;37.50;;;;;;5160051;27;19949;-58
2022/04/07 03:37:50;;;;;;;;;;;21.00;38.00;;;;;;5147971;27;19923;-58
2022/04/07 03:40:16;;;;;;;;;;;21.20;37.40;;;;;;5163001;27;19974;-58
2022/04/07 03:42:42;;;;;;;;;;;21.10;37.50;;;;;;5166839;27;19927;-53
2022/04/07 03:45:08;;;;;;;;;;;21.20;37.00;;;;;;5164640;27;20456;-58
2022/04/07 03:47:33;;;;;;;;;;;20.90;37.60;;;;;;5162088;27;19923;-55
2022/04/07 03:50:00;;;;;;;;;;;21.30;37.10;;;;;;5167934;27;19935;-50
2022/04/07 03:52:26;;;;;;;;;;;21.00;37.60;;;;;;5161504;27;20940;-56
2022/04/07 03:54:52;;;;;;;;;;;21.30;37.10;;;;;;5159253;27;19938;-52
2022/04/07 03:57:18;;;;;;;;;;;21.00;37.50;;;;;;5147586;27;20022;-55
2022/04/07 03:59:44;;;;;;;;;;;21.20;37.20;;;;;;5162651;27;20384;-55
2022/04/07 04:02:10;;;;;;;;;;;21.00;37.60;;;;;;5163807;27;20397;-54
2022/04/07 04:04:36;;;;;;;;;;;21.20;37.00;;;;;;5167016;27;19923;-57
2022/04/07 04:07:02;;;;;;;;;;;21.00;37.30;;;;;;5143634;27;20470;-57
2022/04/07 04:09:28;;;;;;;;;;;21.10;37.10;;;;;;5167692;27;19923;-48
2022/04/07 04:11:54;;;;;;;;;;;21.00;37.30;;;;;;5160315;27;19926;-56
2022/04/07 04:14:19;;;;;;;;;;;21.30;36.80;;;;;;5159778;27;19926;-48
2022/04/07 04:16:45;;;;;;;;;;;21.00;37.30;;;;;;5167890;27;20362;-55
2022/04/07 04:19:11;;;;;;;;;;;21.10;37.10;;;;;;5162292;27;20298;-58
2022/04/07 04:21:37;;;;;;;;;;;21.10;37.20;;;;;;5162188;27;19923;-55
2022/04/07 04:24:03;;;;;;;;;;;21.20;37.00;;;;;;5167683;27;19938;-56
2022/04/07 04:26:29;;;;;;;;;;;21.00;37.20;;;;;;5161879;27;19923;-56
2022/04/07 04:28:55;;;;;;;;;;;21.30;36.80;;;;;;5166802;27;19956;-50
2022/04/07 04:31:24;;;;;;;;;;;21.10;37.00;;;;;;5158852;27;19931;-54
2022/04/07 04:33:51;;;;;;;;;;;21.30;36.70;;;;;;5160777;27;20392;-48
2022/04/07 04:36:17;;;;;;;;;;;21.00;37.20;;;;;;5167372;27;19929;-56
2022/04/07 04:38:43;;;;;;;;;;;21.30;36.50;;;;;;5161842;27;19922;-56
2022/04/07 04:41:09;;;;;;;;;;;21.00;37.00;;;;;;5162074;27;20185;-55
2022/04/07 04:43:35;;;;;;;;;;;21.20;36.80;;;;;;5167634;27;20014;-54
2022/04/07 04:46:00;;;;;;;;;;;21.00;37.00;;;;;;5161747;27;19962;-58
2022/04/07 04:48:26;;;;;;;;;;;21.30;36.80;;;;;;5165586;27;19930;-56
2022/04/07 04:50:52;;;;;;;;;;;21.20;36.70;;;;;;5159106;27;20276;-57
2022/04/07 04:53:18;;;;;;;;;;;21.10;36.70;;;;;;5161471;27;19939;-56
2022/04/07 04:55:44;;;;;;;;;;;21.20;36.60;;;;;;5167327;27;19930;-59
2022/04/07 04:58:09;;;;;;;;;;;21.00;36.90;;;;;;5161743;27;20422;-57
2022/04/07 05:00:35;;;;;;;;;;;21.30;36.30;;;;;;5163562;27;19926;-50
2022/04/07 05:03:01;;;;;;;;;;;21.00;36.50;;;;;;5170638;27;20007;-56
2022/04/07 05:05:27;;;;;;;;;;;21.30;36.20;;;;;;5164699;27;20384;-47
2022/04/07 05:07:52;;;;;;;;;;;21.20;36.20;;;;;;5166457;27;20226;-57
2022/04/07 05:10:18;;;;;;;;;;;21.20;36.20;;;;;;5146900;27;19930;-57
2022/04/07 05:12:44;;;;;;;;;;;21.00;36.60;;;;;;5165260;27;19987;-57
2022/04/07 05:15:10;;;;;;;;;;;21.20;36.30;;;;;;5171010;27;19923;-50
2022/04/07 05:17:36;;;;;;;;;;;21.00;36.70;;;;;;5146523;27;19931;-52
2022/04/07 05:20:02;;;;;;;;;;;21.20;36.60;;;;;;5164935;27;20779;-58
2022/04/07 05:22:28;;;;;;;;;;;20.90;37.10;;;;;;5170128;27;19971;-55
2022/04/07 05:24:53;;;;;;;;;;;21.30;36.70;;;;;;5145800;27;19923;-46
2022/04/07 05:27:19;;;;;;;;;;;21.00;37.10;;;;;;5162608;27;20256;-56
2022/04/07 05:29:45;;;;;;;;;;;21.20;36.80;;;;;;5168938;27;19926;-55
2022/04/07 05:32:11;;;;;;;;;;;21.00;37.20;;;;;;5164867;27;20293;-57
2022/04/07 05:34:37;;;;;;;;;;;21.20;37.00;;;;;;5170214;27;20294;-57
2022/04/07 05:37:03;;;;;;;;;;;21.00;37.40;;;;;;5164784;27;19962;-57
2022/04/07 05:39:28;;;;;;;;;;;21.20;37.00;;;;;;5164589;27;19966;-59
2022/04/07 05:41:54;;;;;;;;;;;21.00;37.40;;;;;;5170121;27;19930;-57
2022/04/07 05:44:20;;;;;;;;;;;21.20;37.10;;;;;;5162909;27;20399;-58
2022/04/07 05:46:46;;;;;;;;;;;21.10;37.40;;;;;;5161810;27;19929;-58
2022/04/07 05:49:11;;;;;;;;;;;21.20;37.30;;;;;;5170123;27;19930;-57
2022/04/07 05:51:38;;;;;;;;;;;21.10;37.40;;;;;;5145918;27;20005;-56
2022/04/07 05:54:03;;;;;;;;;;;21.20;37.10;;;;;;5169966;27;20010;-58
2022/04/07 05:56:29;;;;;;;;;;;21.00;37.50;;;;;;5164495;27;19923;-54
2022/04/07 05:58:55;;;;;;;;;;;21.20;36.90;;;;;;5164217;27;20454;-58
2022/04/07 06:01:21;;;;;;;;;;;21.00;37.30;;;;;;5169524;27;19974;-57
2022/04/07 06:03:46;;;;;;;;;;;21.20;37.10;;;;;;5161557;27;20338;-58
2022/04/07 06:06:12;;;;;;;;;;;21.00;37.50;;;;;;5143899;27;19923;-54
2022/04/07 06:08:38;;;;;;;;;;;21.30;36.90;;;;;;5169575;27;19922;-59
2022/04/07 06:11:04;;;;;;;;;;;21.00;37.10;;;;;;5163762;27;20362;-57
2022/04/07 06:13:30;;;;;;;;;;;21.20;36.80;;;;;;5151179;27;19923;-57
2022/04/07 06:15:55;;;;;;;;;;;21.10;37.20;;;;;;5164161;27;19951;-54
2022/04/07 06:18:21;;;;;;;;;;;21.20;36.90;;;;;;5163656;27;19996;-59
2022/04/07 06:20:47;;;;;;;;;;;21.00;37.10;;;;;;5168508;27;20578;-53
2022/04/07 06:23:13;;;;;;;;;;;21.20;36.60;;;;;;5160521;27;19922;-56
2022/04/07 06:25:39;;;;;;;;;;;21.00;36.80;;;;;;5163614;27;19978;-56
2022/04/07 06:28:05;;;;;;;;;;;21.30;36.20;;;;;;5169571;27;19974;-55
2022/04/07 06:30:30;;;;;;;;;;;21.00;36.50;;;;;;5163972;27;19923;-50
2022/04/07 06:32:56;;;;;;;;;;;21.20;36.20;;;;;;5169465;27;20311;-54
2022/04/07 06:35:22;;;;;;;;;;;21.00;36.40;;;;;;5163904;27;19929;-50
2022/04/07 06:37:52;;;;;;;;;;;21.20;36.00;;;;;;5163370;27;20353;-54
2022/04/07 06:40:21;;;;;;;;;;;21.10;36.00;;;;;;5166948;27;20025;-55
2022/04/07 06:42:47;;;;;;;;;;;21.30;35.80;;;;;;5161392;27;19922;-57
2022/04/07 06:45:13;;;;;;;;;;;21.10;36.00;;;;;;5163717;27;20350;-54
2022/04/07 06:47:39;;;;;;;;;;;21.30;35.70;;;;;;5169289;27;19927;-57
2022/04/07 06:50:06;;;;;;;;;;;21.10;36.00;;;;;;5163651;27;19926;-58
2022/04/07 06:52:32;;;;;;;;;;;21.20;35.80;;;;;;5163806;27;19933;-57
2022/04/07 06:54:57;;;;;;;;;;;21.10;35.90;;;;;;5168838;27;19926;-57
2022/04/07 06:57:23;;;;;;;;;;;21.10;35.90;;;;;;5162630;27;19923;-53
2022/04/07 06:59:49;;;;;;;;;;;21.10;35.90;;;;;;5165509;27;19926;-56
2022/04/07 07:02:15;;;;;;;;;;;21.00;36.40;;;;;;5162808;27;19973;-56
2022/04/07 07:04:40;;;;;;;;;;;21.20;35.90;;;;;;5163403;27;19922;-56
2022/04/07 07:07:06;;;;;;;;;;;21.20;35.70;;;;;;5168784;27;19926;-53
2022/04/07 07:09:32;;;;;;;;;;;21.20;35.70;;;;;;5163046;27;19922;-55
2022/04/07 07:11:58;;;;;;;;;;;21.20;35.40;;;;;;5163176;27;19931;-57
2022/04/07 07:14:24;;;;;;;;;;;21.10;35.50;;;;;;5168372;27;20007;-47
2022/04/07 07:16:49;;;;;;;;;;;21.00;35.70;;;;;;5161554;27;20013;-54
2022/04/07 07:19:17;;;;;;;;;;;21.30;35.40;;;;;;5165264;27;19923;-54
2022/04/07 07:21:43;;;;;;;;;;;21.20;35.60;;;;;;5162894;27;19923;-51
2022/04/07 07:24:09;;;;;;;;;;;21.20;35.70;;;;;;5162710;27;19927;-59
2022/04/07 07:26:35;;;;;;;;;;;21.20;35.60;;;;;;5168620;27;19931;-56
2022/04/07 07:29:02;;;;;;;;;;;21.10;35.80;;;;;;5162920;27;19923;-57
2022/04/07 07:31:27;;;;;;;;;;;21.20;35.60;;;;;;5162708;27;20370;-56
2022/04/07 07:33:53;;;;;;;;;;;21.10;35.70;;;;;;5167935;27;19927;-58
2022/04/07 07:36:19;;;;;;;;;;;21.10;36.10;;;;;;5159921;27;19923;-57
2022/04/07 07:38:45;;;;;;;;;;;21.30;35.80;;;;;;5166664;27;19977;-52
2022/04/07 07:41:10;;;;;;;;;;;21.00;36.20;;;;;;5163061;27;19926;-55
2022/04/07 07:43:36;;;;;;;;;;;21.30;35.90;;;;;;5142172;27;19992;-58
2022/04/07 07:46:02;;;;;;;;;;;21.10;35.80;;;;;;5168081;27;19923;-49
2022/04/07 07:48:28;;;;;;;;;;;21.00;36.10;;;;;;5162546;27;20385;-54
2022/04/07 07:50:54;;;;;;;;;;;21.20;35.70;;;;;;5162619;27;19926;-57
2022/04/07 07:53:20;;;;;;;;;;;21.10;35.90;;;;;;5167192;27;20486;-52
2022/04/07 07:55:46;;;;;;;;;;;21.30;35.80;;;;;;5139755;27;19927;-54
2022/04/07 07:58:12;;;;;;;;;;;21.20;35.90;;;;;;5165221;27;19934;-55
2022/04/07 08:00:38;;;;;;;;;;;21.00;36.40;;;;;;5165305;27;19930;-57
2022/04/07 08:03:03;;;;;;;;;;;21.20;36.30;;;;;;5162343;27;20022;-55
2022/04/07 08:05:29;;;;;;;;;;;21.10;36.60;;;;;;5167877;27;20418;-57
2022/04/07 08:07:55;;;;;;;;;;;21.20;36.30;;;;;;5162223;27;19922;-53
2022/04/07 08:10:21;;;;;;;;;;;21.20;36.00;;;;;;5162013;27;20604;-55
2022/04/07 08:12:47;;;;;;;;;;;21.20;35.90;;;;;;5165391;27;19929;-55
2022/04/07 08:15:12;;;;;;;;;;;21.20;35.90;;;;;;5159695;27;19922;-51
2022/04/07 08:17:38;;;;;;;;;;;21.00;36.40;;;;;;5163185;27;19929;-56
2022/04/07 08:20:04;;;;;;;;;;;21.30;36.10;;;;;;5167083;27;19930;-52
2022/04/07 08:22:30;;;;;;;;;;;21.00;36.30;;;;;;5162167;27;19944;-52
2022/04/07 08:24:56;;;;;;;;;;;21.10;36.20;;;;;;5167567;27;19923;-55
2022/04/07 08:27:23;;;;;;;;;;;21.30;35.90;;;;;;5161785;27;20378;-57
2022/04/07 08:29:50;;;;;;;;;;;21.20;35.80;;;;;;5161239;27;19927;-54
2022/04/07 08:32:16;;;;;;;;;;;21.30;35.70;;;;;;5163928;27;20013;-56
2022/04/07 08:34:41;;;;;;;;;;;21.10;35.90;;;;;;5163385;27;19987;-56
2022/04/07 08:37:07;;;;;;;;;;;21.20;35.80;;;;;;5165709;27;19971;-56
2022/04/07 08:39:33;;;;;;;;;;;21.20;35.70;;;;;;5171159;27;20392;-54
2022/04/07 08:41:59;;;;;;;;;;;21.30;35.50;;;;;;5165676;27;19930;-56
2022/04/07 08:44:31;;;;;;;;;;;21.30;35.40;;;;;;5171124;27;19923;-59
2022/04/07 08:46:57;;;;;;;;;;;21.10;35.80;;;;;;5165539;27;19923;-55
2022/04/07 08:49:23;;;;;;;;;;;21.20;35.60;;;;;;5144906;27;19930;-55
2022/04/07 08:51:49;;;;;;;;;;;21.30;35.40;;;;;;5168071;27;20048;-51
2022/04/07 08:54:15;;;;;;;;;;;21.30;35.40;;;;;;5165294;27;19948;-57
2022/04/07 08:56:41;;;;;;;;;;;21.30;35.30;;;;;;5165726;27;19934;-59
2022/04/07 08:59:07;;;;;;;;;;;21.20;35.60;;;;;;5170768;27;19922;-51
2022/04/07 09:01:33;;;;;;;;;;;21.20;35.60;;;;;;5146918;27;19973;-56
2022/04/07 09:03:58;;;;;;;;;;;21.20;35.60;;;;;;5169117;27;19922;-58
2022/04/07 09:06:25;;;;;;;;;;;21.30;35.40;;;;;;5147977;27;19922;-54
2022/04/07 09:08:51;;;;;;;;;;;21.20;35.60;;;;;;5162239;27;19991;-58
2022/04/07 09:11:17;;;;;;;;;;;21.10;35.70;;;;;;5169369;27;19962;-56
2022/04/07 09:13:44;;;;;;;;;;;21.30;35.40;;;;;;5165458;27;19965;-52
2022/04/07 09:16:12;;;;;;;;;;;21.20;35.50;;;;;;5165184;27;20416;-55
2022/04/07 09:18:39;;;;;;;;;;;21.20;35.30;;;;;;5152138;27;19922;-54
2022/04/07 09:21:05;;;;;;;;;;;21.30;34.90;;;;;;5164980;27;19949;-57
2022/04/07 09:23:37;;;;;;;;;;;21.30;34.90;;;;;;5164961;27;19922;-56
2022/04/07 09:26:03;;;;;;;;;;;21.20;35.20;;;;;;5168747;27;20026;-55
2022/04/07 09:28:29;;;;;;;;;;;21.30;35.20;;;;;;5161525;27;20294;-53
2022/04/07 09:30:55;;;;;;;;;;;21.30;35.10;;;;;;5170154;27;19923;-53
2022/04/07 09:33:22;;;;;;;;;;;21.30;35.50;;;;;;5164816;27;20010;-55
2022/04/07 09:35:58;;;;;;;;;;;21.30;35.90;;;;;;5164694;27;19929;-57
2022/04/07 09:38:24;;;;;;;;;;;21.30;35.90;;;;;;5170132;27;19984;-57
2022/04/07 09:40:49;;;;;;;;;;;21.20;36.10;;;;;;5164738;27;19927;-54
2022/04/07 09:43:15;;;;;;;;;;;21.20;36.40;;;;;;5164133;27;19934;-55
2022/04/07 09:45:45;;;;;;;;;;;21.30;36.10;;;;;;5166468;27;20030;-56
2022/04/07 09:48:15;;;;;;;;;;;21.30;36.40;;;;;;5163022;27;19923;-53
2022/04/07 09:50:41;;;;;;;;;;;21.30;36.30;;;;;;5164536;27;19922;-54
2022/04/07 09:53:07;;;;;;;;;;;21.30;36.50;;;;;;5170152;27;19923;-57
2022/04/07 09:55:43;;;;;;;;;;;21.20;36.80;;;;;;5160690;27;19961;-58
2022/04/07 09:58:11;;;;;;;;;;;21.30;36.50;;;;;;5168888;27;19923;-57
2022/04/07 10:00:37;;;;;;;;;;;21.20;37.10;;;;;;5166399;27;19974;-57
2022/04/07 10:03:03;;;;;;;;;;;21.20;37.00;;;;;;5162703;27;20267;-55
2022/04/07 10:05:29;;;;;;;;;;;21.30;36.90;;;;;;5166402;27;19951;-55
2022/04/07 10:07:58;;;;;;;;;;;21.30;36.90;;;;;;5164155;27;19934;-52
2022/04/07 10:10:24;;;;;;;;;;;21.30;36.80;;;;;;5164371;27;19929;-54
2022/04/07 10:12:50;;;;;;;;;;;21.30;36.70;;;;;;5169737;27;19927;-51
2022/04/07 10:15:16;;;;;;;;;;;21.30;36.40;;;;;;5164225;27;20177;-54
2022/04/07 10:17:41;;;;;;;;;;;21.40;35.90;;;;;;5144018;27;20275;-54
2022/04/07 10:20:08;;;;;;;;;;;21.40;35.70;;;;;;5169150;27;19923;-57
2022/04/07 10:22:43;;;;;;;;;;;21.30;35.70;;;;;;5125266;27;20022;-56
2022/04/07 10:25:09;;;;;;;;;;;21.30;35.80;;;;;;5149338;27;19958;-55
2022/04/07 10:27:44;;;;;;;;;;;21.30;35.70;;;;;;5164210;27;19986;-55
2022/04/07 10:30:11;;;;;;;;;;;21.40;35.40;;;;;;5164030;27;20005;-52
2022/04/07 10:32:38;;;;;;;;;;;21.40;35.20;;;;;;5165443;27;20051;-58
2022/04/07 10:35:04;;;;;;;;;;;21.40;35.10;;;;;;5163819;27;19922;-53
2022/04/07 10:37:30;;;;;;;;;;;21.50;35.10;;;;;;5161990;27;19933;-50
2022/04/07 10:39:56;;;;;;;;;;;21.50;35.00;;;;;;5127912;27;19929;-53
2022/04/07 10:42:45;;;;;;;;;;;21.50;35.00;;;;;;5139511;27;20013;-57
2022/04/07 10:45:10;;;;;;;;;;;21.50;35.00;;;;;;5142544;27;20023;-58
2022/04/07 10:47:36;;;;;;;;;;;21.50;35.20;;;;;;5129651;27;19927;-51
2022/04/07 10:50:03;;;;;;;;;;;21.50;35.30;;;;;;5123283;27;19933;-57
2022/04/07 10:52:29;;;;;;;;;;;21.50;35.20;;;;;;5143876;27;19949;-58
2022/04/07 10:55:08;;;;;;;;;;;21.50;35.30;;;;;;5147234;27;20382;-58
2022/04/07 10:57:34;;;;;;;;;;;21.50;35.50;;;;;;5140676;27;19931;-57
2022/04/07 11:00:00;;;;;;;;;;;21.50;35.40;;;;;;5144382;27;19952;-58
2022/04/07 11:02:32;;;;;;;;;;;21.50;35.50;;;;;;5141621;27;19923;-58
2022/04/07 11:04:58;;;;;;;;;;;21.50;35.50;;;;;;5142516;27;19971;-54
2022/04/07 11:07:24;;;;;;;;;;;21.50;35.50;;;;;;5147568;27;19927;-55
2022/04/07 11:09:54;;;;;;;;;;;21.50;35.70;;;;;;5142130;27;20446;-57
2022/04/07 11:12:21;;;;;;;;;;;21.50;35.80;;;;;;5122934;27;19923;-54
2022/04/07 11:14:47;;;;;;;;;;;21.50;35.70;;;;;;5147464;27;19976;-54
2022/04/07 11:17:14;;;;;;;;;;;21.50;35.50;;;;;;5140403;27;19923;-56
2022/04/07 11:19:44;;;;;;;;;;;21.50;35.50;;;;;;5120708;27;20358;-55
2022/04/07 11:22:12;;;;;;;;;;;21.60;35.40;;;;;;5129125;27;19975;-55
2022/04/07 11:24:44;;;;;;;;;;;21.60;35.30;;;;;;5142492;27;19927;-59
2022/04/07 11:27:28;;;;;;;;;;;21.70;35.20;;;;;;5147368;27;20009;-58
2022/04/07 11:30:07;;;;;;;;;;;21.70;35.20;;;;;;5147363;27;19929;-56
2022/04/07 11:32:33;;;;;;;;;;;21.60;35.20;;;;;;5141743;27;19930;-59
2022/04/07 11:35:12;;;;;;;;;;;21.60;35.20;;;;;;5144347;27;19927;-56
2022/04/07 11:37:38;;;;;;;;;;;21.70;35.30;;;;;;5143821;27;20792;-56
2022/04/07 11:40:04;;;;;;;;;;;21.80;35.20;;;;;;5141269;27;19927;-59
2022/04/07 11:42:32;;;;;;;;;;;21.80;35.30;;;;;;5147128;27;19929;-54
2022/04/07 11:44:58;;;;;;;;;;;21.70;35.30;;;;;;5137537;27;19923;-56
2022/04/07 11:47:25;;;;;;;;;;;21.70;35.50;;;;;;5141648;27;19983;-56
2022/04/07 11:49:51;;;;;;;;;;;21.60;35.50;;;;;;5147149;27;19923;-54
2022/04/07 11:52:24;;;;;;;;;;;21.60;35.60;;;;;;5141131;27;19927;-56
2022/04/07 11:54:51;;;;;;;;;;;21.70;35.60;;;;;;5138900;27;19927;-53
2022/04/07 11:57:17;;;;;;;;;;;21.80;35.50;;;;;;5126795;27;20029;-53
2022/04/07 11:59:43;;;;;;;;;;;21.80;35.50;;;;;;5141352;27;19931;-54
2022/04/07 12:02:09;;;;;;;;;;;21.70;35.80;;;;;;5143001;27;19934;-58
2022/04/07 12:04:35;;;;;;;;;;;21.70;35.70;;;;;;5145853;27;19927;-57
2022/04/07 12:07:01;;;;;;;;;;;21.70;35.90;;;;;;5141635;27;20389;-57
2022/04/07 12:09:27;;;;;;;;;;;21.70;36.00;;;;;;5146459;27;19930;-58
2022/04/07 12:11:52;;;;;;;;;;;21.70;35.90;;;;;;5140311;27;19980;-56
2022/04/07 12:14:24;;;;;;;;;;;21.70;35.80;;;;;;5137796;27;20367;-52
2022/04/07 12:16:50;;;;;;;;;;;21.70;35.80;;;;;;5128474;27;20279;-57
2022/04/07 12:19:17;;;;;;;;;;;21.80;35.70;;;;;;5119940;28;21177;-58
2022/04/07 12:21:49;;;;;;;;;;;21.60;36.00;;;;;;5101640;28;19945;-57
2022/04/07 12:24:15;;;;;;;;;;;21.70;35.90;;;;;;5125873;28;20389;-57
2022/04/07 12:26:42;;;;;;;;;;;21.60;36.00;;;;;;5120252;28;19923;-51
2022/04/07 12:29:08;;;;;;;;;;;21.70;35.90;;;;;;5124894;28;20347;-57
2022/04/07 12:31:34;;;;;;;;;;;21.50;36.50;;;;;;5119284;28;19932;-56
2022/04/07 12:34:07;;;;;;;;;;;21.70;36.40;;;;;;5118140;28;19923;-54
2022/04/07 12:36:35;;;;;;;;;;;21.50;36.70;;;;;;5126007;28;19923;-55
2022/04/07 12:39:10;;;;;;;;;;;21.50;36.60;;;;;;5120469;28;19931;-58
2022/04/07 12:41:37;;;;;;;;;;;21.60;36.80;;;;;;5098695;28;19923;-52
2022/04/07 12:44:03;;;;;;;;;;;21.60;36.60;;;;;;5125930;28;20348;-58
2022/04/07 12:46:48;;;;;;;;;;;21.60;36.60;;;;;;5101993;28;19931;-58
2022/04/07 12:49:14;;;;;;;;;;;21.60;36.60;;;;;;5118971;28;19923;-57
2022/04/07 12:51:40;;;;;;;;;;;21.50;36.50;;;;;;5122529;28;19930;-51
2022/04/07 12:54:10;;;;;;;;;;;21.60;36.60;;;;;;5120002;28;20445;-53
2022/04/07 12:56:37;;;;;;;;;;;21.60;36.60;;;;;;5120107;28;20025;-56
2022/04/07 12:59:09;;;;;;;;;;;21.50;36.70;;;;;;5125586;28;20393;-50
2022/04/07 13:01:34;;;;;;;;;;;21.60;36.50;;;;;;5120123;28;20153;-58
2022/04/07 13:04:00;;;;;;;;;;;21.60;36.50;;;;;;5123637;27;19923;-57
2022/04/07 13:06:26;;;;;;;;;;;21.50;36.90;;;;;;5121763;28;19931;-56
2022/04/07 13:08:52;;;;;;;;;;;21.60;36.90;;;;;;5117422;28;20457;-54
2022/04/07 13:11:37;;;;;;;;;;;21.50;36.90;;;;;;5123818;28;19923;-53
2022/04/07 13:14:07;;;;;;;;;;;21.60;36.90;;;;;;5120221;28;19927;-56
2022/04/07 13:16:33;;;;;;;;;;;21.60;37.00;;;;;;5119894;28;19953;-56
2022/04/07 13:18:59;;;;;;;;;;;21.50;37.40;;;;;;5125516;28;19923;-56
2022/04/07 13:21:25;;;;;;;;;;;21.50;37.40;;;;;;5121517;27;19971;-50
2022/04/07 13:23:51;;;;;;;;;;;21.50;37.20;;;;;;5123293;28;19927;-58
2022/04/07 13:26:17;;;;;;;;;;;21.40;37.50;;;;;;5127204;28;19946;-58
2022/04/07 13:28:45;;;;;;;;;;;21.50;37.30;;;;;;5120317;28;19980;-53
2022/04/07 13:31:11;;;;;;;;;;;21.50;37.40;;;;;;5124662;28;20299;-58
2022/04/07 13:33:37;;;;;;;;;;;21.50;37.20;;;;;;5127506;28;19924;-55
2022/04/07 13:36:03;;;;;;;;;;;21.40;37.30;;;;;;5123434;28;20317;-57
2022/04/07 13:38:31;;;;;;;;;;;21.50;37.50;;;;;;5128773;28;19993;-57
2022/04/07 13:40:57;;;;;;;;;;;21.40;37.50;;;;;;5123043;27;19930;-53
2022/04/07 13:43:23;;;;;;;;;;;21.50;37.40;;;;;;5122452;28;19959;-56
2022/04/07 13:45:49;;;;;;;;;;;21.50;37.20;;;;;;5125639;28;19934;-53
2022/04/07 13:48:14;;;;;;;;;;;21.50;37.10;;;;;;5121621;28;19928;-57
2022/04/07 13:50:41;;;;;;;;;;;21.60;37.00;;;;;;5123303;28;19923;-55
2022/04/07 13:53:08;;;;;;;;;;;21.50;37.10;;;;;;5128432;28;19923;-56
2022/04/07 13:55:33;;;;;;;;;;;21.60;37.00;;;;;;5122853;28;19931;-49
2022/04/07 13:57:59;;;;;;;;;;;21.60;37.20;;;;;;5128316;28;20434;-58
2022/04/07 14:00:25;;;;;;;;;;;21.60;37.00;;;;;;5122768;28;19931;-58
2022/04/07 14:02:51;;;;;;;;;;;21.60;36.80;;;;;;5121454;28;20002;-57
2022/04/07 14:05:17;;;;;;;;;;;21.60;36.90;;;;;;5124875;28;19976;-54
2022/04/07 14:07:43;;;;;;;;;;;21.60;36.90;;;;;;5122441;28;19923;-62
2022/04/07 14:10:10;;;;;;;;;;;21.60;37.00;;;;;;5122835;28;20025;-50
2022/04/07 14:12:37;;;;;;;;;;;21.70;37.10;;;;;;5110109;28;19924;-58